createdAt,value
2017-07-02T00:00:29.680Z,1008.87
2017-07-02T00:01:29.671Z,1008.9
2017-07-02T00:02:29.692Z,1008.86
2017-07-02T00:03:29.643Z,1008.86
2017-07-02T00:04:29.672Z,1008.86
2017-07-02T00:05:29.607Z,1008.86
2017-07-02T00:06:29.587Z,1008.9
2017-07-02T00:07:29.579Z,1008.87
2017-07-02T00:08:29.563Z,1008.87
2017-07-02T00:09:29.541Z,1008.9
2017-07-02T00:10:29.592Z,1008.89
2017-07-02T00:11:29.514Z,1008.93
2017-07-02T00:12:29.499Z,1008.92
2017-07-02T00:13:29.483Z,1008.92
2017-07-02T00:14:29.470Z,1008.9
2017-07-02T00:15:29.454Z,1008.89
2017-07-02T00:16:29.437Z,1008.88
2017-07-02T00:17:29.423Z,1008.9
2017-07-02T00:18:29.409Z,1008.95
2017-07-02T00:19:29.388Z,1008.91
2017-07-02T00:20:29.383Z,1008.94
2017-07-02T00:21:29.580Z,1008.92
2017-07-02T00:22:29.351Z,1008.9
2017-07-02T00:23:29.796Z,1008.97
2017-07-02T00:24:29.321Z,1008.92
2017-07-02T00:25:29.302Z,1008.95
2017-07-02T00:26:29.574Z,1008.89
2017-07-02T00:27:29.270Z,1008.9
2017-07-02T00:28:29.253Z,1008.91
2017-07-02T00:29:29.236Z,1008.96
2017-07-02T00:30:29.222Z,1008.99
2017-07-02T00:31:29.206Z,1008.95
2017-07-02T00:32:29.191Z,1008.95
2017-07-02T00:33:29.175Z,1008.95
2017-07-02T00:34:29.161Z,1008.96
2017-07-02T00:35:29.145Z,1009.01
2017-07-02T00:36:29.131Z,1008.97
2017-07-02T00:37:29.110Z,1008.97
2017-07-02T00:38:29.096Z,1008.97
2017-07-02T00:39:29.088Z,1009.02
2017-07-02T00:40:29.067Z,1009.01
2017-07-02T00:41:29.052Z,1009.03
2017-07-02T00:42:29.043Z,1009.03
2017-07-02T00:43:29.027Z,1009.02
2017-07-02T00:44:29.011Z,1009.06
2017-07-02T00:45:28.991Z,1009.07
2017-07-02T00:46:28.978Z,1009.06
2017-07-02T00:47:28.962Z,1009.05
2017-07-02T00:48:28.942Z,1009.1
2017-07-02T00:49:28.930Z,1009.11
2017-07-02T00:50:28.911Z,1009.11
2017-07-02T00:51:28.901Z,1009.09
2017-07-02T00:52:28.882Z,1009.1
2017-07-02T00:53:28.871Z,1009.13
2017-07-02T00:54:28.857Z,1009.11
2017-07-02T00:55:28.831Z,1009.12
2017-07-02T00:56:28.820Z,1009.09
2017-07-02T00:57:28.805Z,1009.13
2017-07-02T00:58:28.793Z,1009.15
2017-07-02T00:59:28.772Z,1009.13
2017-07-02T01:00:28.757Z,1009.14
2017-07-02T01:01:28.742Z,1009.16
2017-07-02T01:02:28.729Z,1009.11
2017-07-02T01:03:28.714Z,1009.13
2017-07-02T01:04:28.692Z,1009.12
2017-07-02T01:05:28.682Z,1009.11
2017-07-02T01:06:28.666Z,1009.14
2017-07-02T01:07:28.650Z,1009.11
2017-07-02T01:08:28.632Z,1009.06
2017-07-02T01:09:28.613Z,1009.07
2017-07-02T01:10:28.599Z,1009.07
2017-07-02T01:11:28.583Z,1009.02
2017-07-02T01:12:28.563Z,1009.01
2017-07-02T01:13:28.552Z,1009.02
2017-07-02T01:14:28.532Z,1009.02
2017-07-02T01:15:28.516Z,1008.99
2017-07-02T01:16:28.502Z,1009.01
2017-07-02T01:17:28.495Z,1008.98
2017-07-02T01:18:28.471Z,1009.01
2017-07-02T01:19:28.457Z,1008.96
2017-07-02T01:20:28.443Z,1009
2017-07-02T01:21:28.432Z,1008.98
2017-07-02T01:22:28.412Z,1008.99
2017-07-02T01:23:28.394Z,1009
2017-07-02T01:24:28.382Z,1009
2017-07-02T01:25:28.363Z,1009
2017-07-02T01:26:28.342Z,1009.01
2017-07-02T01:27:28.329Z,1009
2017-07-02T01:28:28.313Z,1009.03
2017-07-02T01:29:28.302Z,1009.05
2017-07-02T01:30:28.281Z,1009.06
2017-07-02T01:31:28.267Z,1009.03
2017-07-02T01:32:28.251Z,1009.03
2017-07-02T01:33:28.229Z,1009.01
2017-07-02T01:34:28.219Z,1009.07
2017-07-02T01:35:28.201Z,1009.08
2017-07-02T01:36:28.186Z,1009.09
2017-07-02T01:37:28.170Z,1009.07
2017-07-02T01:38:28.153Z,1009.05
2017-07-02T01:39:28.140Z,1009.07
2017-07-02T01:40:28.123Z,1009.1
2017-07-02T01:41:28.109Z,1009.13
2017-07-02T01:42:28.095Z,1009.12
2017-07-02T01:43:28.158Z,1009.15
2017-07-02T01:44:28.057Z,1009.16
2017-07-02T01:45:28.043Z,1009.13
2017-07-02T01:46:28.031Z,1009.12
2017-07-02T01:47:28.057Z,1009.12
2017-07-02T01:48:28.003Z,1009.15
2017-07-02T01:49:27.980Z,1009.15
2017-07-02T01:50:27.963Z,1009.16
2017-07-02T01:51:27.947Z,1009.17
2017-07-02T01:52:27.932Z,1009.17
2017-07-02T01:53:27.912Z,1009.18
2017-07-02T01:54:27.903Z,1009.12
2017-07-02T01:55:27.883Z,1009.15
2017-07-02T01:56:27.872Z,1009.13
2017-07-02T01:57:27.851Z,1009.14
2017-07-02T01:58:27.834Z,1009.14
2017-07-02T01:59:27.827Z,1009.13
2017-07-02T02:00:27.803Z,1009.15
2017-07-02T02:01:27.789Z,1009.15
2017-07-02T02:02:27.768Z,1009.17
2017-07-02T02:03:27.754Z,1009.16
2017-07-02T02:04:27.743Z,1009.17
2017-07-02T02:05:27.873Z,1009.2
2017-07-02T02:06:27.704Z,1009.13
2017-07-02T02:07:27.770Z,1009.15
2017-07-02T02:08:27.673Z,1009.17
2017-07-02T02:09:27.662Z,1009.14
2017-07-02T02:10:27.643Z,1009.12
2017-07-02T02:11:27.624Z,1009.07
2017-07-02T02:12:27.608Z,1009.08
2017-07-02T02:13:27.627Z,1009.08
2017-07-02T02:14:27.576Z,1009.05
2017-07-02T02:15:27.669Z,1009.04
2017-07-02T02:16:27.540Z,1009.06
2017-07-02T02:17:27.578Z,1009.06
2017-07-02T02:18:27.514Z,1009.06
2017-07-02T02:19:27.495Z,1009.02
2017-07-02T02:20:27.483Z,1009.03
2017-07-02T02:21:27.461Z,1009.06
2017-07-02T02:22:27.443Z,1009.05
2017-07-02T02:23:27.480Z,1009.05
2017-07-02T02:24:27.409Z,1009.05
2017-07-02T02:25:27.496Z,1009.06
2017-07-02T02:26:27.379Z,1009.04
2017-07-02T02:27:27.413Z,1009.03
2017-07-02T02:28:27.347Z,1009.05
2017-07-02T02:29:27.332Z,1009.01
2017-07-02T02:30:27.314Z,1009
2017-07-02T02:31:27.303Z,1009.02
2017-07-02T02:32:27.285Z,1009.01
2017-07-02T02:33:27.266Z,1009
2017-07-02T02:34:27.256Z,1009.01
2017-07-02T02:35:27.243Z,1009.03
2017-07-02T02:36:27.216Z,1008.99
2017-07-02T02:37:27.199Z,1009.03
2017-07-02T02:38:27.184Z,1009.03
2017-07-02T02:39:27.168Z,1009.02
2017-07-02T02:40:27.148Z,1009.05
2017-07-02T02:41:27.134Z,1009.05
2017-07-02T02:42:27.115Z,1009.03
2017-07-02T02:43:27.099Z,1009.01
2017-07-02T02:44:27.086Z,1009.06
2017-07-02T02:45:27.068Z,1009
2017-07-02T02:46:27.053Z,1009.04
2017-07-02T02:47:27.037Z,1009.04
2017-07-02T02:48:27.024Z,1009.03
2017-07-02T02:49:27.002Z,1009
2017-07-02T02:50:26.986Z,1009.03
2017-07-02T02:51:26.970Z,1008.98
2017-07-02T02:52:26.961Z,1009.01
2017-07-02T02:53:26.942Z,1008.99
2017-07-02T02:54:26.923Z,1008.95
2017-07-02T02:55:26.901Z,1008.99
2017-07-02T02:56:26.894Z,1008.97
2017-07-02T02:57:26.873Z,1008.96
2017-07-02T02:58:26.857Z,1008.98
2017-07-02T02:59:26.839Z,1009
2017-07-02T03:00:26.821Z,1009
2017-07-02T03:01:26.806Z,1009
2017-07-02T03:02:26.789Z,1009.02
2017-07-02T03:03:26.772Z,1009.01
2017-07-02T03:04:26.757Z,1009.02
2017-07-02T03:05:26.745Z,1009
2017-07-02T03:06:26.726Z,1009.06
2017-07-02T03:07:26.707Z,1009.05
2017-07-02T03:08:26.687Z,1009.05
2017-07-02T03:09:26.675Z,1009.05
2017-07-02T03:10:26.656Z,1009.03
2017-07-02T03:11:26.639Z,1009.04
2017-07-02T03:12:27.228Z,1009.03
2017-07-02T03:13:26.603Z,1009.09
2017-07-02T03:14:26.591Z,1009.08
2017-07-02T03:15:26.576Z,1009.08
2017-07-02T03:16:26.557Z,1009.1
2017-07-02T03:17:26.541Z,1009.12
2017-07-02T03:18:26.523Z,1009.13
2017-07-02T03:19:26.506Z,1009.13
2017-07-02T03:20:26.490Z,1009.12
2017-07-02T03:21:26.477Z,1009.15
2017-07-02T03:22:26.458Z,1009.13
2017-07-02T03:23:26.442Z,1009.12
2017-07-02T03:24:26.425Z,1009.15
2017-07-02T03:25:26.407Z,1009.16
2017-07-02T03:26:26.392Z,1009.18
2017-07-02T03:27:26.377Z,1009.15
2017-07-02T03:28:26.357Z,1009.18
2017-07-02T03:29:26.343Z,1009.17
2017-07-02T03:30:26.323Z,1009.16
2017-07-02T03:31:26.306Z,1009.15
2017-07-02T03:32:26.292Z,1009.14
2017-07-02T03:33:26.278Z,1009.14
2017-07-02T03:34:26.265Z,1009.17
2017-07-02T03:35:26.239Z,1009.19
2017-07-02T03:36:26.228Z,1009.18
2017-07-02T03:37:26.205Z,1009.18
2017-07-02T03:38:26.195Z,1009.17
2017-07-02T03:39:26.174Z,1009.16
2017-07-02T03:40:26.162Z,1009.21
2017-07-02T03:41:26.142Z,1009.21
2017-07-02T03:42:26.125Z,1009.2
2017-07-02T03:43:26.109Z,1009.24
2017-07-02T03:44:26.098Z,1009.22
2017-07-02T03:45:26.076Z,1009.24
2017-07-02T03:46:26.061Z,1009.19
2017-07-02T03:47:26.046Z,1009.25
2017-07-02T03:48:26.033Z,1009.25
2017-07-02T03:49:26.020Z,1009.28
2017-07-02T03:50:25.996Z,1009.26
2017-07-02T03:51:25.980Z,1009.24
2017-07-02T03:52:25.964Z,1009.29
2017-07-02T03:53:25.947Z,1009.27
2017-07-02T03:54:25.932Z,1009.27
2017-07-02T03:55:25.915Z,1009.3
2017-07-02T03:56:25.897Z,1009.29
2017-07-02T03:57:25.884Z,1009.29
2017-07-02T03:58:25.866Z,1009.3
2017-07-02T03:59:25.846Z,1009.29
2017-07-02T04:00:25.849Z,1009.28
2017-07-02T04:01:25.817Z,1009.26
2017-07-02T04:02:25.796Z,1009.26
2017-07-02T04:03:25.779Z,1009.26
2017-07-02T04:04:25.762Z,1009.25
2017-07-02T04:05:25.748Z,1009.27
2017-07-02T04:06:25.734Z,1009.27
2017-07-02T04:07:25.717Z,1009.24
2017-07-02T04:08:25.699Z,1009.25
2017-07-02T04:09:25.687Z,1009.27
2017-07-02T04:10:25.665Z,1009.25
2017-07-02T04:11:25.647Z,1009.28
2017-07-02T04:12:25.638Z,1009.28
2017-07-02T04:13:25.617Z,1009.27
2017-07-02T04:14:25.600Z,1009.29
2017-07-02T04:15:25.581Z,1009.29
2017-07-02T04:16:25.566Z,1009.29
2017-07-02T04:17:25.554Z,1009.29
2017-07-02T04:18:25.534Z,1009.3
2017-07-02T04:19:25.524Z,1009.33
2017-07-02T04:20:25.506Z,1009.36
2017-07-02T04:21:25.487Z,1009.32
2017-07-02T04:22:25.468Z,1009.34
2017-07-02T04:23:25.456Z,1009.34
2017-07-02T04:24:25.438Z,1009.33
2017-07-02T04:25:25.418Z,1009.36
2017-07-02T04:26:25.406Z,1009.33
2017-07-02T04:27:25.385Z,1009.33
2017-07-02T04:28:25.371Z,1009.31
2017-07-02T04:29:25.353Z,1009.34
2017-07-02T04:30:25.335Z,1009.32
2017-07-02T04:31:25.321Z,1009.35
2017-07-02T04:32:25.309Z,1009.33
2017-07-02T04:33:25.289Z,1009.31
2017-07-02T04:34:25.275Z,1009.28
2017-07-02T04:35:25.253Z,1009.28
2017-07-02T04:36:25.245Z,1009.3
2017-07-02T04:37:25.222Z,1009.24
2017-07-02T04:38:25.205Z,1009.3
2017-07-02T04:39:25.192Z,1009.26
2017-07-02T04:40:25.172Z,1009.22
2017-07-02T04:41:25.162Z,1009.27
2017-07-02T04:42:25.143Z,1009.31
2017-07-02T04:43:25.123Z,1009.3
2017-07-02T04:44:25.105Z,1009.29
2017-07-02T04:45:25.088Z,1009.27
2017-07-02T04:46:25.073Z,1009.3
2017-07-02T04:47:25.059Z,1009.3
2017-07-02T04:48:25.039Z,1009.28
2017-07-02T04:49:25.021Z,1009.34
2017-07-02T04:50:25.007Z,1009.29
2017-07-02T04:51:24.990Z,1009.31
2017-07-02T04:52:24.975Z,1009.34
2017-07-02T04:53:24.961Z,1009.34
2017-07-02T04:54:24.942Z,1009.39
2017-07-02T04:55:24.924Z,1009.38
2017-07-02T04:56:24.911Z,1009.38
2017-07-02T04:57:24.892Z,1009.4
2017-07-02T04:58:24.880Z,1009.41
2017-07-02T04:59:24.859Z,1009.38
2017-07-02T05:00:24.839Z,1009.45
2017-07-02T05:01:24.825Z,1009.43
2017-07-02T05:02:24.807Z,1009.46
2017-07-02T05:03:24.789Z,1009.45
2017-07-02T05:04:24.782Z,1009.4
2017-07-02T05:05:24.763Z,1009.39
2017-07-02T05:06:24.743Z,1009.43
2017-07-02T05:07:24.727Z,1009.4
2017-07-02T05:08:24.710Z,1009.4
2017-07-02T05:09:24.692Z,1009.43
2017-07-02T05:10:24.678Z,1009.41
2017-07-02T05:11:24.661Z,1009.41
2017-07-02T05:12:24.641Z,1009.4
2017-07-02T05:13:24.632Z,1009.4
2017-07-02T05:14:24.609Z,1009.4
2017-07-02T05:15:24.594Z,1009.41
2017-07-02T05:16:24.575Z,1009.42
2017-07-02T05:17:24.560Z,1009.45
2017-07-02T05:18:24.551Z,1009.44
2017-07-02T05:19:24.530Z,1009.44
2017-07-02T05:20:24.510Z,1009.43
2017-07-02T05:21:24.504Z,1009.45
2017-07-02T05:22:24.483Z,1009.45
2017-07-02T05:23:24.471Z,1009.46
2017-07-02T05:24:24.449Z,1009.44
2017-07-02T05:25:24.430Z,1009.46
2017-07-02T05:26:24.413Z,1009.46
2017-07-02T05:27:24.401Z,1009.49
2017-07-02T05:28:24.388Z,1009.48
2017-07-02T05:29:24.366Z,1009.53
2017-07-02T05:30:24.398Z,1009.48
2017-07-02T05:31:24.336Z,1009.47
2017-07-02T05:32:24.326Z,1009.48
2017-07-02T05:33:24.299Z,1009.45
2017-07-02T05:34:24.292Z,1009.5
2017-07-02T05:35:24.270Z,1009.5
2017-07-02T05:36:24.251Z,1009.51
2017-07-02T05:37:24.240Z,1009.45
2017-07-02T05:38:24.219Z,1009.47
2017-07-02T05:39:24.201Z,1009.48
2017-07-02T05:40:24.188Z,1009.44
2017-07-02T05:41:24.181Z,1009.41
2017-07-02T05:42:24.157Z,1009.38
2017-07-02T05:43:24.141Z,1009.35
2017-07-02T05:44:24.121Z,1009.33
2017-07-02T05:45:24.110Z,1009.29
2017-07-02T05:46:24.091Z,1009.28
2017-07-02T05:47:24.072Z,1009.32
2017-07-02T05:48:24.057Z,1009.31
2017-07-02T05:49:24.040Z,1009.28
2017-07-02T05:50:24.031Z,1009.29
2017-07-02T05:51:24.008Z,1009.3
2017-07-02T05:52:24.000Z,1009.32
2017-07-02T05:53:23.977Z,1009.32
2017-07-02T05:54:23.960Z,1009.29
2017-07-02T05:55:23.942Z,1009.31
2017-07-02T05:56:23.927Z,1009.32
2017-07-02T05:57:23.910Z,1009.34
2017-07-02T05:58:23.894Z,1009.34
2017-07-02T05:59:23.881Z,1009.37
2017-07-02T06:00:23.858Z,1009.32
2017-07-02T06:01:23.850Z,1009.38
2017-07-02T06:02:23.830Z,1009.36
2017-07-02T06:03:23.820Z,1009.42
2017-07-02T06:04:23.800Z,1009.41
2017-07-02T06:05:23.793Z,1009.44
2017-07-02T06:06:23.765Z,1009.5
2017-07-02T06:07:23.752Z,1009.46
2017-07-02T06:08:23.736Z,1009.43
2017-07-02T06:09:23.720Z,1009.47
2017-07-02T06:10:23.706Z,1009.46
2017-07-02T06:11:23.689Z,1009.51
2017-07-02T06:12:23.672Z,1009.49
2017-07-02T06:13:23.659Z,1009.52
2017-07-02T06:14:23.640Z,1009.51
2017-07-02T06:15:23.640Z,1009.5
2017-07-02T06:16:23.610Z,1009.52
2017-07-02T06:17:23.597Z,1009.56
2017-07-02T06:18:23.581Z,1009.5
2017-07-02T06:19:23.565Z,1009.55
2017-07-02T06:20:23.551Z,1009.54
2017-07-02T06:21:23.536Z,1009.57
2017-07-02T06:22:23.513Z,1009.56
2017-07-02T06:23:23.500Z,1009.48
2017-07-02T06:24:23.489Z,1009.57
2017-07-02T06:25:23.468Z,1009.59
2017-07-02T06:26:23.452Z,1009.56
2017-07-02T06:27:23.439Z,1009.52
2017-07-02T06:28:23.423Z,1009.59
2017-07-02T06:29:23.409Z,1009.6
2017-07-02T06:30:23.391Z,1009.63
2017-07-02T06:31:23.380Z,1009.59
2017-07-02T06:32:23.359Z,1009.62
2017-07-02T06:33:23.345Z,1009.59
2017-07-02T06:34:23.329Z,1009.63
2017-07-02T06:35:23.318Z,1009.6
2017-07-02T06:36:23.298Z,1009.62
2017-07-02T06:37:23.290Z,1009.61
2017-07-02T06:38:23.271Z,1009.64
2017-07-02T06:39:23.248Z,1009.63
2017-07-02T06:40:23.241Z,1009.66
2017-07-02T06:41:23.219Z,1009.65
2017-07-02T06:42:23.209Z,1009.7
2017-07-02T06:43:23.192Z,1009.66
2017-07-02T06:44:23.176Z,1009.66
2017-07-02T06:45:23.160Z,1009.61
2017-07-02T06:46:23.147Z,1009.66
2017-07-02T06:47:23.129Z,1009.71
2017-07-02T06:48:23.109Z,1009.67
2017-07-02T06:49:23.099Z,1009.65
2017-07-02T06:50:23.080Z,1009.63
2017-07-02T06:51:23.064Z,1009.61
2017-07-02T06:52:23.049Z,1009.6
2017-07-02T06:53:23.040Z,1009.58
2017-07-02T06:54:23.021Z,1009.57
2017-07-02T06:55:23.009Z,1009.59
2017-07-02T06:56:22.989Z,1009.64
2017-07-02T06:57:22.977Z,1009.63
2017-07-02T06:58:22.962Z,1009.66
2017-07-02T06:59:22.943Z,1009.66
2017-07-02T07:00:22.931Z,1009.6
2017-07-02T07:01:22.911Z,1009.64
2017-07-02T07:02:22.901Z,1009.66
2017-07-02T07:03:22.900Z,1009.58
2017-07-02T07:04:22.867Z,1009.62
2017-07-02T07:05:22.861Z,1009.65
2017-07-02T07:06:22.841Z,1009.66
2017-07-02T07:07:22.831Z,1009.7
2017-07-02T07:08:22.804Z,1009.67
2017-07-02T07:09:22.790Z,1009.62
2017-07-02T07:10:22.779Z,1009.65
2017-07-02T07:11:22.770Z,1009.64
2017-07-02T07:12:22.748Z,1009.66
2017-07-02T07:13:22.736Z,1009.65
2017-07-02T07:14:22.720Z,1009.7
2017-07-02T07:15:22.712Z,1009.7
2017-07-02T07:16:22.689Z,1009.69
2017-07-02T07:17:22.669Z,1009.69
2017-07-02T07:18:22.659Z,1009.67
2017-07-02T07:19:22.638Z,1009.7
2017-07-02T07:20:22.629Z,1009.68
2017-07-02T07:21:22.610Z,1009.67
2017-07-02T07:22:22.598Z,1009.67
2017-07-02T07:23:22.580Z,1009.68
2017-07-02T07:24:22.566Z,1009.72
2017-07-02T07:25:22.551Z,1009.76
2017-07-02T07:26:22.541Z,1009.79
2017-07-02T07:27:22.520Z,1009.83
2017-07-02T07:28:22.503Z,1009.8
2017-07-02T07:29:22.489Z,1009.79
2017-07-02T07:30:22.476Z,1009.83
2017-07-02T07:31:22.458Z,1009.78
2017-07-02T07:32:22.454Z,1009.78
2017-07-02T07:33:22.483Z,1009.82
2017-07-02T07:34:22.411Z,1009.79
2017-07-02T07:35:22.453Z,1009.84
2017-07-02T07:36:22.380Z,1009.84
2017-07-02T07:37:22.373Z,1009.87
2017-07-02T07:38:22.347Z,1009.84
2017-07-02T07:39:22.390Z,1009.83
2017-07-02T07:40:22.321Z,1009.84
2017-07-02T07:41:22.304Z,1009.83
2017-07-02T07:42:22.292Z,1009.85
2017-07-02T07:43:22.320Z,1009.89
2017-07-02T07:44:22.262Z,1009.85
2017-07-02T07:45:22.307Z,1009.85
2017-07-02T07:46:22.226Z,1009.84
2017-07-02T07:47:22.211Z,1009.85
2017-07-02T07:48:22.198Z,1009.86
2017-07-02T07:49:22.182Z,1009.85
2017-07-02T07:50:22.169Z,1009.89
2017-07-02T07:51:22.153Z,1009.92
2017-07-02T07:52:22.137Z,1009.92
2017-07-02T07:53:22.120Z,1009.91
2017-07-02T07:54:22.103Z,1009.92
2017-07-02T07:55:22.086Z,1009.86
2017-07-02T07:56:22.072Z,1009.87
2017-07-02T07:57:22.111Z,1009.94
2017-07-02T07:58:22.041Z,1009.96
2017-07-02T07:59:22.030Z,1009.96
2017-07-02T08:00:22.010Z,1009.98
2017-07-02T08:01:21.998Z,1010
2017-07-02T08:02:21.980Z,1009.97
2017-07-02T08:03:21.963Z,1009.99
2017-07-02T08:04:21.950Z,1010.05
2017-07-02T08:05:21.932Z,1010.03
2017-07-02T08:06:21.919Z,1010.03
2017-07-02T08:07:21.904Z,1010
2017-07-02T08:08:21.893Z,1010.07
2017-07-02T08:09:21.873Z,1010.07
2017-07-02T08:10:21.859Z,1010.06
2017-07-02T08:11:21.854Z,1010.09
2017-07-02T08:12:21.831Z,1010.13
2017-07-02T08:13:21.812Z,1010.1
2017-07-02T08:14:21.801Z,1010.12
2017-07-02T08:15:21.781Z,1010.08
2017-07-02T08:16:21.768Z,1010.11
2017-07-02T08:17:21.752Z,1010.13
2017-07-02T08:18:21.734Z,1010.1
2017-07-02T08:19:21.718Z,1010.07
2017-07-02T08:20:21.706Z,1010.12
2017-07-02T08:21:21.690Z,1010.1
2017-07-02T08:22:21.675Z,1010.12
2017-07-02T08:23:21.658Z,1010.13
2017-07-02T08:24:21.653Z,1010.14
2017-07-02T08:25:21.633Z,1010.12
2017-07-02T08:26:21.621Z,1010.14
2017-07-02T08:27:21.602Z,1010.13
2017-07-02T08:28:21.583Z,1010.12
2017-07-02T08:29:21.566Z,1010.11
2017-07-02T08:30:21.558Z,1010.14
2017-07-02T08:31:21.536Z,1010.16
2017-07-02T08:32:21.526Z,1010.2
2017-07-02T08:33:21.511Z,1010.17
2017-07-02T08:34:21.497Z,1010.17
2017-07-02T08:35:21.479Z,1010.2
2017-07-02T08:36:21.467Z,1010.22
2017-07-02T08:37:21.449Z,1010.25
2017-07-02T08:38:21.430Z,1010.25
2017-07-02T08:39:21.413Z,1010.28
2017-07-02T08:40:21.403Z,1010.29
2017-07-02T08:41:21.384Z,1010.29
2017-07-02T08:42:21.370Z,1010.24
2017-07-02T08:43:21.353Z,1010.32
2017-07-02T08:44:21.342Z,1010.3
2017-07-02T08:45:21.324Z,1010.32
2017-07-02T08:46:21.310Z,1010.33
2017-07-02T08:47:21.298Z,1010.29
2017-07-02T08:48:21.281Z,1010.33
2017-07-02T08:49:21.267Z,1010.31
2017-07-02T08:50:21.250Z,1010.3
2017-07-02T08:51:21.241Z,1010.32
2017-07-02T08:52:21.224Z,1010.28
2017-07-02T08:53:21.213Z,1010.34
2017-07-02T08:54:21.191Z,1010.31
2017-07-02T08:55:21.173Z,1010.35
2017-07-02T08:56:21.160Z,1010.31
2017-07-02T08:57:21.146Z,1010.33
2017-07-02T08:58:21.131Z,1010.37
2017-07-02T08:59:21.120Z,1010.35
2017-07-02T09:00:21.107Z,1010.33
2017-07-02T09:01:21.090Z,1010.33
2017-07-02T09:02:21.071Z,1010.33
2017-07-02T09:03:21.052Z,1010.35
2017-07-02T09:04:21.038Z,1010.36
2017-07-02T09:05:21.027Z,1010.33
2017-07-02T09:06:21.009Z,1010.36
2017-07-02T09:07:21.001Z,1010.41
2017-07-02T09:08:20.988Z,1010.37
2017-07-02T09:09:20.966Z,1010.4
2017-07-02T09:10:20.950Z,1010.4
2017-07-02T09:11:20.934Z,1010.42
2017-07-02T09:12:20.917Z,1010.39
2017-07-02T09:13:20.911Z,1010.41
2017-07-02T09:14:20.891Z,1010.43
2017-07-02T09:15:20.871Z,1010.45
2017-07-02T09:16:20.862Z,1010.45
2017-07-02T09:17:20.850Z,1010.41
2017-07-02T09:18:20.829Z,1010.43
2017-07-02T09:19:20.815Z,1010.45
2017-07-02T09:20:20.809Z,1010.46
2017-07-02T09:21:20.786Z,1010.44
2017-07-02T09:22:20.769Z,1010.45
2017-07-02T09:23:20.756Z,1010.49
2017-07-02T09:24:20.741Z,1010.51
2017-07-02T09:25:20.723Z,1010.52
2017-07-02T09:26:20.710Z,1010.52
2017-07-02T09:27:20.692Z,1010.52
2017-07-02T09:28:20.680Z,1010.56
2017-07-02T09:29:20.670Z,1010.53
2017-07-02T09:30:20.656Z,1010.57
2017-07-02T09:31:20.643Z,1010.5
2017-07-02T09:32:20.620Z,1010.55
2017-07-02T09:33:20.604Z,1010.55
2017-07-02T09:34:20.589Z,1010.57
2017-07-02T09:35:20.580Z,1010.54
2017-07-02T09:36:20.562Z,1010.59
2017-07-02T09:37:20.541Z,1010.58
2017-07-02T09:38:20.528Z,1010.6
2017-07-02T09:39:20.522Z,1010.55
2017-07-02T09:40:20.547Z,1010.61
2017-07-02T09:41:20.481Z,1010.65
2017-07-02T09:42:20.473Z,1010.58
2017-07-02T09:43:20.453Z,1010.61
2017-07-02T09:44:20.439Z,1010.59
2017-07-02T09:45:20.429Z,1010.59
2017-07-02T09:46:20.410Z,1010.68
2017-07-02T09:47:20.389Z,1010.7
2017-07-02T09:48:20.379Z,1010.66
2017-07-02T09:49:20.360Z,1010.64
2017-07-02T09:50:20.347Z,1010.67
2017-07-02T09:51:20.340Z,1010.66
2017-07-02T09:52:20.934Z,1010.69
2017-07-02T09:53:20.310Z,1010.7
2017-07-02T09:54:20.289Z,1010.72
2017-07-02T09:55:20.283Z,1010.74
2017-07-02T09:56:20.263Z,1010.72
2017-07-02T09:57:20.246Z,1010.71
2017-07-02T09:58:20.228Z,1010.67
2017-07-02T09:59:20.219Z,1010.72
2017-07-02T10:00:20.203Z,1010.72
2017-07-02T10:01:20.179Z,1010.7
2017-07-02T10:02:20.167Z,1010.72
2017-07-02T10:03:20.157Z,1010.69
2017-07-02T10:04:20.142Z,1010.76
2017-07-02T10:05:20.122Z,1010.7
2017-07-02T10:06:20.109Z,1010.72
2017-07-02T10:07:20.090Z,1010.74
2017-07-02T10:08:20.081Z,1010.71
2017-07-02T10:09:20.070Z,1010.71
2017-07-02T10:10:20.050Z,1010.72
2017-07-02T10:11:20.034Z,1010.73
2017-07-02T10:12:20.021Z,1010.75
2017-07-02T10:13:20.003Z,1010.73
2017-07-02T10:14:19.990Z,1010.75
2017-07-02T10:15:19.972Z,1010.77
2017-07-02T10:16:19.959Z,1010.71
2017-07-02T10:17:19.952Z,1010.7
2017-07-02T10:18:19.931Z,1010.71
2017-07-02T10:19:19.921Z,1010.67
2017-07-02T10:20:19.902Z,1010.73
2017-07-02T10:21:19.903Z,1010.73
2017-07-02T10:22:19.872Z,1010.71
2017-07-02T10:23:19.863Z,1010.71
2017-07-02T10:24:19.844Z,1010.67
2017-07-02T10:25:19.834Z,1010.72
2017-07-02T10:26:19.812Z,1010.76
2017-07-02T10:27:19.801Z,1010.77
2017-07-02T10:28:19.783Z,1010.72
2017-07-02T10:29:19.764Z,1010.74
2017-07-02T10:30:19.751Z,1010.75
2017-07-02T10:31:19.741Z,1010.76
2017-07-02T10:32:19.728Z,1010.8
2017-07-02T10:33:19.705Z,1010.82
2017-07-02T10:34:19.699Z,1010.82
2017-07-02T10:35:19.679Z,1010.85
2017-07-02T10:36:19.663Z,1010.84
2017-07-02T10:37:19.653Z,1010.82
2017-07-02T10:38:19.635Z,1010.82
2017-07-02T10:39:19.622Z,1010.85
2017-07-02T10:40:19.609Z,1010.87
2017-07-02T10:41:19.591Z,1010.89
2017-07-02T10:42:19.581Z,1010.85
2017-07-02T10:43:19.562Z,1010.82
2017-07-02T10:44:19.548Z,1010.82
2017-07-02T10:45:19.542Z,1010.83
2017-07-02T10:46:19.522Z,1010.86
2017-07-02T10:47:19.512Z,1010.84
2017-07-02T10:48:19.491Z,1010.9
2017-07-02T10:49:19.480Z,1010.87
2017-07-02T10:50:19.462Z,1010.88
2017-07-02T10:51:19.452Z,1010.92
2017-07-02T10:52:19.437Z,1010.92
2017-07-02T10:53:19.417Z,1010.96
2017-07-02T10:54:19.405Z,1010.96
2017-07-02T10:55:19.388Z,1010.92
2017-07-02T10:56:19.373Z,1010.92
2017-07-02T10:57:19.363Z,1010.95
2017-07-02T10:58:19.352Z,1010.97
2017-07-02T10:59:19.326Z,1010.95
2017-07-02T11:00:19.311Z,1010.95
2017-07-02T11:01:19.294Z,1010.97
2017-07-02T11:02:19.279Z,1011.03
2017-07-02T11:03:19.270Z,1010.94
2017-07-02T11:04:19.254Z,1010.99
2017-07-02T11:05:19.238Z,1011.04
2017-07-02T11:06:19.222Z,1010.99
2017-07-02T11:07:19.213Z,1011.04
2017-07-02T11:08:19.200Z,1010.98
2017-07-02T11:09:19.176Z,1011.03
2017-07-02T11:10:19.163Z,1010.99
2017-07-02T11:11:19.150Z,1010.99
2017-07-02T11:12:19.132Z,1011.01
2017-07-02T11:13:19.114Z,1010.99
2017-07-02T11:14:19.337Z,1011.01
2017-07-02T11:15:19.084Z,1010.99
2017-07-02T11:16:19.071Z,1010.99
2017-07-02T11:17:19.071Z,1010.99
2017-07-02T11:18:19.041Z,1011.01
2017-07-02T11:19:19.031Z,1011.02
2017-07-02T11:20:19.021Z,1011.09
2017-07-02T11:21:18.997Z,1011.09
2017-07-02T11:22:18.990Z,1011.04
2017-07-02T11:23:18.968Z,1011.07
2017-07-02T11:24:18.958Z,1011.08
2017-07-02T11:25:18.940Z,1011.07
2017-07-02T11:26:18.932Z,1011.07
2017-07-02T11:27:18.909Z,1011.08
2017-07-02T11:28:18.894Z,1011.12
2017-07-02T11:29:18.879Z,1011.08
2017-07-02T11:30:18.868Z,1011.11
2017-07-02T11:31:18.851Z,1011.16
2017-07-02T11:32:18.842Z,1011.07
2017-07-02T11:33:18.822Z,1011.12
2017-07-02T11:34:18.812Z,1011.13
2017-07-02T11:35:18.798Z,1011.07
2017-07-02T11:36:18.790Z,1011.15
2017-07-02T11:37:18.764Z,1011.11
2017-07-02T11:38:18.754Z,1011.15
2017-07-02T11:39:18.738Z,1011.15
2017-07-02T11:40:18.720Z,1011.15
2017-07-02T11:41:18.708Z,1011.21
2017-07-02T11:42:18.694Z,1011.17
2017-07-02T11:43:18.681Z,1011.17
2017-07-02T11:44:18.668Z,1011.14
2017-07-02T11:45:18.653Z,1011.15
2017-07-02T11:46:18.639Z,1011.16
2017-07-02T11:47:18.619Z,1011.16
2017-07-02T11:48:18.609Z,1011.16
2017-07-02T11:49:18.593Z,1011.13
2017-07-02T11:50:18.580Z,1011.12
2017-07-02T11:51:18.570Z,1011.14
2017-07-02T11:52:18.551Z,1011.14
2017-07-02T11:53:18.540Z,1011.16
2017-07-02T11:54:18.535Z,1011.18
2017-07-02T11:55:18.509Z,1011.12
2017-07-02T11:56:18.497Z,1011.11
2017-07-02T11:57:18.502Z,1011.1
2017-07-02T11:58:18.505Z,1011.16
2017-07-02T11:59:18.457Z,1011.11
2017-07-02T12:00:18.439Z,1011.09
2017-07-02T12:01:18.430Z,1011.14
2017-07-02T12:02:18.415Z,1011.12
2017-07-02T12:03:18.407Z,1011.11
2017-07-02T12:04:18.386Z,1011.13
2017-07-02T12:05:18.370Z,1011.09
2017-07-02T12:06:18.356Z,1011.12
2017-07-02T12:07:18.353Z,1011.12
2017-07-02T12:08:18.330Z,1011.14
2017-07-02T12:09:18.318Z,1011.13